createdAt,value
2023-02-16T04:45:31.667Z,2.10
2023-02-16T04:48:46.980Z,2.40
2023-02-16T05:14:55.792Z,2.50
2023-02-16T05:17:54.607Z,2.20
2023-02-16T05:33:30.421Z,2.10
2023-02-16T05:36:37.509Z,2.10
2023-02-16T05:39:46.346Z,2.00
2023-02-16T05:46:45.996Z,1.90
2023-02-16T06:07:35.917Z,2.00
2023-02-16T06:10:03.280Z,2.00
2023-02-16T06:12:32.341Z,1.90
2023-02-16T06:14:59.276Z,2.00
2023-02-16T06:17:26.220Z,2.00
2023-02-16T06:19:53.176Z,1.90
2023-02-16T06:22:20.264Z,1.90
2023-02-16T06:24:47.206Z,1.90
2023-02-16T06:27:14.100Z,2.00
2023-02-16T06:29:41.362Z,2.00
2023-02-16T06:32:08.464Z,1.90
2023-02-16T06:34:35.444Z,2.00
2023-02-16T06:37:02.692Z,2.00
2023-02-16T06:39:29.629Z,2.10
2023-02-16T06:41:56.580Z,2.10
2023-02-16T06:44:23.480Z,2.10
2023-02-16T06:46:50.560Z,2.20
2023-02-16T06:49:18.605Z,2.20
2023-02-16T06:51:46.455Z,2.20
2023-02-16T06:54:13.870Z,2.20
2023-02-16T06:56:40.828Z,2.20
2023-02-16T06:59:07.746Z,2.20
2023-02-16T07:01:35.064Z,2.20
2023-02-16T07:04:02.132Z,2.30
2023-02-16T07:06:29.239Z,2.30
2023-02-16T07:08:56.629Z,2.30
2023-02-16T07:11:23.567Z,2.20
2023-02-16T07:13:50.810Z,2.20
2023-02-16T07:16:17.779Z,2.20
2023-02-16T07:18:46.192Z,2.20
2023-02-16T07:21:13.368Z,2.10
2023-02-16T07:23:40.396Z,2.20
2023-02-16T07:26:07.463Z,2.30
2023-02-16T07:28:34.361Z,2.40
2023-02-16T07:31:08.448Z,2.40
2023-02-16T07:33:35.685Z,2.50
2023-02-16T07:36:02.724Z,2.50
2023-02-16T07:38:30.753Z,2.50
2023-02-16T07:40:58.234Z,2.50
2023-02-16T07:43:25.648Z,2.50
2023-02-16T07:45:52.660Z,2.50
2023-02-16T07:48:20.097Z,2.40
2023-02-16T07:50:47.047Z,2.50
2023-02-16T07:53:14.168Z,2.60
2023-02-16T07:55:42.352Z,2.60
2023-02-16T07:58:09.302Z,2.80
2023-02-16T08:00:36.320Z,2.90
2023-02-16T08:03:04.125Z,2.90
2023-02-16T08:05:31.080Z,3.00
2023-02-16T08:07:58.066Z,3.10
2023-02-16T08:10:25.246Z,3.10
2023-02-16T08:12:52.142Z,3.10
2023-02-16T08:15:19.139Z,3.10
2023-02-16T08:17:46.094Z,3.20
2023-02-16T08:20:13.251Z,3.20
2023-02-16T08:22:40.240Z,3.20
2023-02-16T08:25:07.759Z,3.20
2023-02-16T08:27:35.525Z,3.20
2023-02-16T08:30:02.753Z,3.20
2023-02-16T08:32:30.164Z,3.20
2023-02-16T08:34:57.382Z,3.20
2023-02-16T08:37:24.960Z,3.30
2023-02-16T08:39:52.094Z,3.30
2023-02-16T08:42:19.099Z,3.30
2023-02-16T08:44:46.293Z,3.40
2023-02-16T08:47:13.428Z,3.40
2023-02-16T08:49:40.488Z,3.40
2023-02-16T08:52:07.646Z,3.50
2023-02-16T08:54:34.636Z,3.50
2023-02-16T08:57:02.907Z,3.60
2023-02-16T08:59:30.420Z,3.60
2023-02-16T09:01:58.152Z,3.60
2023-02-16T09:04:25.675Z,3.60
2023-02-16T09:06:53.410Z,3.60
2023-02-16T09:09:20.551Z,3.70
2023-02-16T09:11:48.016Z,3.60
2023-02-16T09:14:17.043Z,3.60
2023-02-16T09:16:47.934Z,3.60
2023-02-16T09:19:16.076Z,3.50
2023-02-16T09:21:43.580Z,3.50
2023-02-16T09:24:11.494Z,3.50
2023-02-16T09:26:41.293Z,3.50
2023-02-16T09:29:08.833Z,3.50
2023-02-16T09:31:37.034Z,3.50
2023-02-16T09:34:05.813Z,3.50
2023-02-16T09:36:32.747Z,3.50
2023-02-16T09:38:59.750Z,3.50
2023-02-16T09:41:35.540Z,3.60
2023-02-16T09:44:02.630Z,3.60
2023-02-16T09:46:30.864Z,3.70
2023-02-16T09:48:58.788Z,3.70
2023-02-16T09:51:34.409Z,3.80
2023-02-16T09:54:15.320Z,3.90
2023-02-16T09:56:47.929Z,3.90
2023-02-16T09:59:27.660Z,3.90
2023-02-16T10:02:15.004Z,3.90
2023-02-16T10:04:43.489Z,3.80
2023-02-16T10:07:31.693Z,3.80
2023-02-16T10:10:01.013Z,3.80
2023-02-16T10:12:32.088Z,4.00
2023-02-16T10:15:25.990Z,4.00
2023-02-16T10:17:58.960Z,4.10
2023-02-16T10:20:33.589Z,4.10
2023-02-16T10:23:09.363Z,4.20
2023-02-16T10:25:54.596Z,4.30
2023-02-16T10:28:41.858Z,4.30
2023-02-16T10:31:27.908Z,4.50
2023-02-16T10:34:01.871Z,4.50
2023-02-16T10:36:47.956Z,4.60
2023-02-16T10:39:33.567Z,4.70
2023-02-16T10:42:09.742Z,4.70
2023-02-16T10:44:40.308Z,4.80
2023-02-16T10:47:24.040Z,4.80
2023-02-16T10:49:51.863Z,4.90
2023-02-16T10:52:19.825Z,4.90
2023-02-16T10:54:46.933Z,5.00
2023-02-16T10:57:25.028Z,5.00
2023-02-16T10:59:52.983Z,5.10
2023-02-16T11:02:27.621Z,5.10
2023-02-16T11:04:55.999Z,5.10
2023-02-16T11:07:24.620Z,5.20
2023-02-16T11:09:55.433Z,5.30
2023-02-16T11:12:25.101Z,5.30
2023-02-16T11:14:55.008Z,5.40
2023-02-16T11:17:23.667Z,5.40
2023-02-16T11:20:01.637Z,5.40
2023-02-16T11:22:31.421Z,5.50
2023-02-16T11:25:13.914Z,5.50
2023-02-16T11:27:49.607Z,5.50
2023-02-16T11:30:22.564Z,5.50
2023-02-16T11:32:51.312Z,5.60
2023-02-16T11:35:19.014Z,5.60
2023-02-16T11:37:46.388Z,5.60
2023-02-16T11:40:22.138Z,5.60
2023-02-16T11:42:51.062Z,5.80
2023-02-16T11:45:24.062Z,5.80
2023-02-16T11:47:55.753Z,5.80
2023-02-16T11:50:23.247Z,5.80
2023-02-16T11:52:51.671Z,5.90
2023-02-16T11:55:36.000Z,6.00
2023-02-16T11:58:18.213Z,6.00
2023-02-16T12:00:57.537Z,6.00
2023-02-16T12:03:34.219Z,6.00
2023-02-16T12:06:16.935Z,6.10
2023-02-16T12:08:51.343Z,6.10
2023-02-16T12:11:26.290Z,6.10
2023-02-16T12:13:53.223Z,6.20
2023-02-16T12:16:27.122Z,6.20
2023-02-16T12:19:12.566Z,6.20
2023-02-16T12:21:54.503Z,6.20
2023-02-16T12:24:24.196Z,6.30
2023-02-16T12:26:53.334Z,6.30
2023-02-16T12:29:29.213Z,6.40
2023-02-16T12:32:02.115Z,6.40
2023-02-16T12:34:39.737Z,6.50
2023-02-16T12:37:13.365Z,6.50
2023-02-16T12:39:43.143Z,6.60
2023-02-16T12:42:35.808Z,6.70
2023-02-16T12:45:18.883Z,6.80
2023-02-16T12:47:52.328Z,6.90
2023-02-16T12:50:27.737Z,6.90
2023-02-16T12:52:57.774Z,7.00
2023-02-16T12:55:30.956Z,7.10
2023-02-16T12:58:04.347Z,7.10
2023-02-16T13:00:35.035Z,7.20
2023-02-16T13:03:07.863Z,7.30
2023-02-16T13:05:37.410Z,7.40
2023-02-16T13:08:39.674Z,7.50
2023-02-16T13:11:39.286Z,7.60
2023-02-16T13:14:12.135Z,7.80
2023-02-16T13:16:48.261Z,8.00
2023-02-16T13:19:15.699Z,8.10
2023-02-16T13:21:50.951Z,8.30
2023-02-16T13:24:31.483Z,8.40
2023-02-16T13:27:13.882Z,8.50
2023-02-16T13:30:00.409Z,8.70
2023-02-16T13:32:30.199Z,8.90
2023-02-16T13:35:14.859Z,9.00
2023-02-16T13:37:44.501Z,9.20
2023-02-16T13:40:26.569Z,9.30
2023-02-16T13:43:12.387Z,9.50
2023-02-16T13:45:41.466Z,9.60
2023-02-16T13:48:14.294Z,9.70
2023-02-16T13:50:41.317Z,9.80
2023-02-16T13:53:18.596Z,9.90
2023-02-16T13:55:46.236Z,10.00
2023-02-16T13:58:13.449Z,10.10
2023-02-16T14:00:42.322Z,10.10
2023-02-16T14:03:20.104Z,10.20
2023-02-16T14:05:51.219Z,10.30
2023-02-16T14:08:23.964Z,10.30
2023-02-16T14:10:50.925Z,10.40
2023-02-16T14:13:17.897Z,10.40
2023-02-16T14:15:52.197Z,10.50
2023-02-16T14:18:32.738Z,10.50
2023-02-16T14:21:19.952Z,10.50
2023-02-16T14:23:54.205Z,10.60
2023-02-16T14:26:21.349Z,10.70
2023-02-16T14:28:54.149Z,10.70
2023-02-16T14:31:22.961Z,10.80
2023-02-16T14:33:52.905Z,10.90
2023-02-16T14:36:27.074Z,11.00
2023-02-16T14:38:55.259Z,11.00
2023-02-16T14:41:22.187Z,11.20
2023-02-16T14:43:50.296Z,11.20
2023-02-16T14:46:17.223Z,11.20
2023-02-16T14:48:56.705Z,11.20
2023-02-16T14:51:35.920Z,11.20
2023-02-16T14:54:21.854Z,11.30
2023-02-16T14:56:51.707Z,11.30
2023-02-16T14:59:34.539Z,11.30
2023-02-16T15:02:21.441Z,11.30
2023-02-16T15:04:48.382Z,11.40
2023-02-16T15:07:15.489Z,11.40
2023-02-16T15:09:42.934Z,11.40
2023-02-16T15:12:24.436Z,11.60
2023-02-16T15:14:53.583Z,11.50
2023-02-16T15:17:27.336Z,11.50
2023-02-16T15:19:56.312Z,11.60
2023-02-16T15:22:25.369Z,11.60
2023-02-16T15:25:03.199Z,11.60
2023-02-16T15:27:32.938Z,11.60
2023-02-16T15:30:04.947Z,11.60
2023-02-16T15:32:32.756Z,11.60
2023-02-16T15:35:08.704Z,11.60
2023-02-16T15:37:37.784Z,11.60
2023-02-16T15:40:30.945Z,11.60
2023-02-16T15:43:03.334Z,11.60
2023-02-16T15:45:35.395Z,11.70
2023-02-16T15:48:29.324Z,11.60
2023-02-16T15:51:00.523Z,11.60
2023-02-16T15:53:36.051Z,11.60
2023-02-16T15:56:05.685Z,11.60
2023-02-16T15:58:33.658Z,11.60
2023-02-16T16:01:00.609Z,11.60
2023-02-16T16:03:27.614Z,11.60
2023-02-16T16:06:03.082Z,11.60
2023-02-16T16:08:30.700Z,11.60
2023-02-16T16:10:58.175Z,11.60
2023-02-16T16:13:26.652Z,11.60
2023-02-16T16:15:57.806Z,11.50
2023-02-16T16:18:43.462Z,11.50
2023-02-16T16:21:29.131Z,11.50
2023-02-16T16:23:58.087Z,11.50
2023-02-16T16:26:25.641Z,11.40
2023-02-16T16:28:52.836Z,11.40
2023-02-16T16:31:22.635Z,11.40
2023-02-16T16:34:00.254Z,11.40
2023-02-16T16:36:29.020Z,11.30
2023-02-16T16:39:22.144Z,11.30
2023-02-16T16:42:08.293Z,11.20
2023-02-16T16:44:36.513Z,11.10
2023-02-16T16:47:26.859Z,11.00
2023-02-16T16:49:53.759Z,10.90
2023-02-16T16:52:53.220Z,11.00
2023-02-16T16:55:20.222Z,10.80
2023-02-16T16:57:47.947Z,10.80
2023-02-16T17:00:15.703Z,10.80
2023-02-16T17:02:42.990Z,10.80
2023-02-16T17:05:09.957Z,10.80
2023-02-16T17:07:36.892Z,10.80
2023-02-16T17:10:05.214Z,10.70
2023-02-16T17:12:32.355Z,10.80
2023-02-16T17:15:00.371Z,10.80
2023-02-16T17:17:27.490Z,10.70
2023-02-16T17:19:54.474Z,10.70
2023-02-16T17:22:21.648Z,10.80
2023-02-16T17:24:48.617Z,10.70
2023-02-16T17:27:15.523Z,10.60
2023-02-16T17:29:44.603Z,10.50
2023-02-16T17:32:11.641Z,10.50
2023-02-16T17:34:38.628Z,10.40
2023-02-16T17:37:08.909Z,10.40
2023-02-16T17:39:35.893Z,10.40
2023-02-16T17:42:02.988Z,10.50
2023-02-16T17:44:30.008Z,10.50
2023-02-16T17:46:56.962Z,10.50
2023-02-16T17:49:23.929Z,10.40
2023-02-16T17:51:50.850Z,10.40
2023-02-16T17:54:17.775Z,10.30
2023-02-16T17:56:45.067Z,10.20
2023-02-16T17:59:15.263Z,10.20
2023-02-16T18:01:42.694Z,10.10
2023-02-16T18:04:09.725Z,10.10
2023-02-16T18:06:36.755Z,10.10
2023-02-16T18:09:04.159Z,10.10
2023-02-16T18:11:31.258Z,10.10
2023-02-16T18:13:58.164Z,10.10
2023-02-16T18:16:26.339Z,10.10
2023-02-16T18:18:53.464Z,10.10
2023-02-16T18:21:20.452Z,10.00
2023-02-16T18:23:47.392Z,10.00
2023-02-16T18:26:15.736Z,10.00
2023-02-16T18:28:43.116Z,9.90
2023-02-16T18:31:10.342Z,9.90
2023-02-16T18:33:37.434Z,9.90
2023-02-16T18:36:04.948Z,9.90
2023-02-16T18:38:32.118Z,9.80
2023-02-16T18:40:59.084Z,9.90
2023-02-16T18:43:26.085Z,9.90
2023-02-16T18:45:53.130Z,9.90
2023-02-16T18:48:20.171Z,9.90
2023-02-16T18:50:47.145Z,10.00
2023-02-16T18:53:14.288Z,10.00
2023-02-16T18:55:41.309Z,10.00
2023-02-16T18:58:08.676Z,10.00
2023-02-16T19:00:36.528Z,9.90
2023-02-16T19:03:04.115Z,9.90
2023-02-16T19:05:31.284Z,9.90
2023-02-16T19:07:58.296Z,9.90
2023-02-16T19:10:25.322Z,9.90
2023-02-16T19:12:52.277Z,9.90
2023-02-16T19:15:19.300Z,9.90
2023-02-16T19:17:46.262Z,9.90
2023-02-16T19:20:16.759Z,9.80
2023-02-16T19:22:47.347Z,9.80
2023-02-16T19:25:14.862Z,9.80
2023-02-16T19:27:41.995Z,9.80
2023-02-16T19:30:09.278Z,9.90
2023-02-16T19:32:36.606Z,9.70
2023-02-16T19:35:03.664Z,9.70
2023-02-16T19:37:30.604Z,9.70
2023-02-16T19:39:57.540Z,9.70
2023-02-16T19:42:24.525Z,9.70
2023-02-16T19:44:51.506Z,9.80
2023-02-16T19:47:18.590Z,9.80
2023-02-16T19:49:45.714Z,9.90
2023-02-16T19:52:12.673Z,9.70
2023-02-16T19:54:39.580Z,9.80
2023-02-16T19:57:06.642Z,9.70
2023-02-16T19:59:33.613Z,9.70
2023-02-16T20:02:00.658Z,9.80
2023-02-16T20:04:27.657Z,9.60
2023-02-16T20:06:54.676Z,9.70
2023-02-16T20:09:22.153Z,9.70
2023-02-16T20:11:49.466Z,9.60
2023-02-16T20:14:16.484Z,9.60
2023-02-16T20:16:43.525Z,9.70
2023-02-16T20:19:10.516Z,9.70
2023-02-16T20:21:37.453Z,9.60
2023-02-16T20:24:05.430Z,9.60
2023-02-16T20:26:36.385Z,9.60
2023-02-16T20:29:04.173Z,9.80
2023-02-16T20:31:33.278Z,9.60
2023-02-16T20:34:00.807Z,9.60
2023-02-16T20:36:27.751Z,9.60
2023-02-16T20:38:54.750Z,9.70
2023-02-16T20:41:21.864Z,9.60
2023-02-16T20:43:48.847Z,9.60
2023-02-16T20:46:16.347Z,9.60
2023-02-16T20:48:43.794Z,9.60
2023-02-16T20:51:11.660Z,9.60
2023-02-16T20:53:39.002Z,9.60
2023-02-16T20:56:14.748Z,9.60
2023-02-16T20:58:42.826Z,9.60
2023-02-16T21:01:43.508Z,9.60
2023-02-16T21:04:10.736Z,9.50
2023-02-16T21:06:37.709Z,9.50
2023-02-16T21:09:05.298Z,9.60
2023-02-16T21:11:32.420Z,9.60
2023-02-16T21:13:59.463Z,9.70
2023-02-16T21:16:26.553Z,9.60
2023-02-16T21:18:53.823Z,9.60
2023-02-16T21:21:20.993Z,9.50
2023-02-16T21:23:49.291Z,9.50
2023-02-16T21:26:17.333Z,9.60
2023-02-16T21:28:44.280Z,9.50
2023-02-16T21:31:17.089Z,9.50
2023-02-16T21:33:44.238Z,9.50
2023-02-16T21:36:21.845Z,9.60
2023-02-16T21:38:49.203Z,9.60
2023-02-16T21:41:26.727Z,9.50
2023-02-16T21:44:03.135Z,9.50
2023-02-16T21:46:33.224Z,9.50
2023-02-16T21:49:00.243Z,9.50
2023-02-16T21:51:28.555Z,9.50
2023-02-16T21:53:56.133Z,9.50
2023-02-16T21:56:25.855Z,9.50
2023-02-16T21:58:52.790Z,9.50
2023-02-16T22:01:24.599Z,9.50
2023-02-16T22:03:56.110Z,9.50
2023-02-16T22:06:24.415Z,9.50
2023-02-16T22:08:51.363Z,9.50
2023-02-16T22:11:18.385Z,9.60
2023-02-16T22:13:45.565Z,9.50
2023-02-16T22:16:21.610Z,9.50
2023-02-16T22:18:49.012Z,9.60
2023-02-16T22:21:16.262Z,9.70
2023-02-16T22:23:43.381Z,9.70
2023-02-16T22:26:19.116Z,9.80
2023-02-16T22:28:46.116Z,9.80
2023-02-16T22:31:13.146Z,10.00
2023-02-16T22:33:40.092Z,9.90
2023-02-16T22:36:09.401Z,9.90
2023-02-16T22:38:36.338Z,9.90
2023-02-16T22:41:06.556Z,9.80
2023-02-16T22:43:33.896Z,9.80
2023-02-16T22:46:04.985Z,9.70
2023-02-16T22:48:32.037Z,9.70
2023-02-16T22:50:59.396Z,9.70
2023-02-16T22:53:27.077Z,9.50
2023-02-16T22:55:54.632Z,9.50
2023-02-16T22:58:21.775Z,9.50
2023-02-16T23:00:49.609Z,9.50
2023-02-16T23:03:16.872Z,9.50
2023-02-16T23:05:43.828Z,9.50
2023-02-16T23:08:11.400Z,9.50
2023-02-16T23:10:39.048Z,9.60
2023-02-16T23:13:06.904Z,9.60
2023-02-16T23:15:36.776Z,9.60
2023-02-16T23:18:03.794Z,9.50
2023-02-16T23:20:31.011Z,9.50
2023-02-16T23:22:58.210Z,9.50
2023-02-16T23:25:34.069Z,9.40
2023-02-16T23:28:02.222Z,9.40
2023-02-16T23:30:29.613Z,9.40
2023-02-16T23:32:57.079Z,9.30
2023-02-16T23:35:24.093Z,9.30
2023-02-16T23:37:51.134Z,9.30
2023-02-16T23:40:18.143Z,9.30
2023-02-16T23:42:45.054Z,9.30
2023-02-16T23:45:12.016Z,9.20
2023-02-16T23:47:38.956Z,9.20
2023-02-16T23:50:06.225Z,9.20
2023-02-16T23:52:33.150Z,9.20
2023-02-16T23:55:00.097Z,9.20
2023-02-16T23:57:27.079Z,9.20
2023-02-16T23:59:53.982Z,9.30
